Time;durP1;ratioP1;P1;durP2;ratioP2;P2;SDS_P1;SDS_P2;PMS_P1;PMS_P2;Temp;Humidity;BMP_temperature;BMP_pressure;BME280_temperature;BME280_humidity;BME280_pressure;Samples;Min_cycle;Max_cycle;Signal;HPM_P1;HPM_P2
2023/06/11 00:00:56;;;;;;;;;;;19.60;99.90;;;;;;5012282;28;19914;-68
2023/06/11 00:03:22;;;;;;;;;;;19.60;99.90;;;;;;5014814;28;19914;-68
2023/06/11 00:05:48;;;;;;;;;;;19.50;99.90;;;;;;5027749;28;19951;-68
2023/06/11 00:08:13;;;;;;;;;;;19.50;99.90;;;;;;5029975;28;19959;-72
2023/06/11 00:10:39;;;;;;;;;;;19.50;99.90;;;;;;5016565;28;19909;-68
2023/06/11 00:13:05;;;;;;;;;;;19.40;99.90;;;;;;5021900;28;19910;-68
2023/06/11 00:15:30;;;;;;;;;;;19.40;99.90;;;;;;5028398;28;19995;-68
2023/06/11 00:17:56;;;;;;;;;;;19.40;99.90;;;;;;5017799;28;19936;-68
2023/06/11 00:20:22;;;;;;;;;;;19.40;99.90;;;;;;5019771;28;20372;-68
2023/06/11 00:22:48;;;;;;;;;;;19.40;99.90;;;;;;5024211;28;19917;-68
2023/06/11 00:25:13;;;;;;;;;;;19.40;99.90;;;;;;5015728;28;19939;-73
2023/06/11 00:27:39;;;;;;;;;;;19.30;99.90;;;;;;5015566;28;19917;-73
2023/06/11 00:30:06;;;;;;;;;;;19.20;99.90;;;;;;5031128;28;20313;-68
2023/06/11 00:32:32;;;;;;;;;;;19.20;99.90;;;;;;5015527;28;19910;-68
2023/06/11 00:34:58;;;;;;;;;;;19.20;99.90;;;;;;5014404;28;19909;-68
2023/06/11 00:37:24;;;;;;;;;;;19.20;99.90;;;;;;5016405;28;20309;-68
2023/06/11 00:39:49;;;;;;;;;;;19.20;99.90;;;;;;5015799;28;19916;-68
2023/06/11 00:42:15;;;;;;;;;;;19.20;99.90;;;;;;5016098;28;19910;-74
2023/06/11 00:44:40;;;;;;;;;;;19.10;99.90;;;;;;5015980;28;19917;-68
2023/06/11 00:47:07;;;;;;;;;;;19.10;99.90;;;;;;5014125;28;20322;-67
2023/06/11 00:49:32;;;;;;;;;;;19.10;99.90;;;;;;5016188;28;19910;-68
2023/06/11 00:51:58;;;;;;;;;;;19.10;99.90;;;;;;5017928;28;20371;-67
2023/06/11 00:54:25;;;;;;;;;;;19.10;99.90;;;;;;5023080;28;20258;-67
2023/06/11 00:56:51;;;;;;;;;;;19.10;99.90;;;;;;5022991;28;20223;-68
2023/06/11 00:59:20;;;;;;;;;;;19.10;99.90;;;;;;5021912;28;19913;-68
2023/06/11 01:01:58;;;;;;;;;;;19.10;99.90;;;;;;5019095;28;19920;-68
2023/06/11 01:04:25;;;;;;;;;;;19.00;99.90;;;;;;5015661;28;19905;-68
2023/06/11 01:06:52;;;;;;;;;;;19.00;99.90;;;;;;5016219;28;20611;-67
2023/06/11 01:09:22;;;;;;;;;;;18.90;99.90;;;;;;5015608;28;19967;-68
2023/06/11 01:11:53;;;;;;;;;;;18.90;99.90;;;;;;5016198;28;19917;-68
2023/06/11 01:14:19;;;;;;;;;;;18.90;99.90;;;;;;5015216;28;20016;-68
2023/06/11 01:16:47;;;;;;;;;;;18.90;99.90;;;;;;5016031;28;20293;-67
2023/06/11 01:19:16;;;;;;;;;;;18.90;99.90;;;;;;5016070;28;20271;-70
2023/06/11 01:21:46;;;;;;;;;;;18.80;99.90;;;;;;5014396;28;20077;-67
2023/06/11 01:24:11;;;;;;;;;;;18.80;99.90;;;;;;5021156;28;19918;-67
2023/06/11 01:26:49;;;;;;;;;;;18.80;99.90;;;;;;5015184;28;20201;-68
2023/06/11 01:29:15;;;;;;;;;;;18.80;99.90;;;;;;5016197;28;19906;-68
2023/06/11 01:31:40;;;;;;;;;;;18.80;99.90;;;;;;5014127;28;19916;-68
2023/06/11 01:34:08;;;;;;;;;;;18.80;99.90;;;;;;5014882;28;19909;-68
2023/06/11 01:36:36;;;;;;;;;;;18.80;99.90;;;;;;5015151;28;20319;-68
2023/06/11 01:39:02;;;;;;;;;;;18.80;99.90;;;;;;5014765;28;19909;-68
2023/06/11 01:41:28;;;;;;;;;;;18.80;99.90;;;;;;5015309;28;19909;-68
2023/06/11 01:43:53;;;;;;;;;;;18.80;99.90;;;;;;5014209;28;19913;-67
2023/06/11 01:46:19;;;;;;;;;;;18.80;99.90;;;;;;5014693;28;20001;-68
2023/06/11 01:48:44;;;;;;;;;;;18.80;99.90;;;;;;5013665;28;19922;-68
2023/06/11 01:51:13;;;;;;;;;;;18.80;99.90;;;;;;5015222;28;19967;-67
2023/06/11 01:53:40;;;;;;;;;;;18.80;99.90;;;;;;5014131;28;19999;-68
2023/06/11 01:56:05;;;;;;;;;;;18.80;99.90;;;;;;5016614;28;19967;-67
2023/06/11 01:58:32;;;;;;;;;;;18.80;99.90;;;;;;5013583;28;19917;-68
2023/06/11 02:00:58;;;;;;;;;;;18.80;99.90;;;;;;5015112;28;20267;-67
2023/06/11 02:03:24;;;;;;;;;;;18.80;99.90;;;;;;5015994;28;19913;-67
2023/06/11 02:05:49;;;;;;;;;;;18.80;99.90;;;;;;5013988;28;19960;-67
2023/06/11 02:08:15;;;;;;;;;;;18.80;99.90;;;;;;5030508;28;19910;-74
2023/06/11 02:10:41;;;;;;;;;;;18.80;99.90;;;;;;5016474;28;19910;-67
2023/06/11 02:13:07;;;;;;;;;;;18.80;99.90;;;;;;5016471;28;19905;-67
2023/06/11 02:15:33;;;;;;;;;;;18.70;99.90;;;;;;5027410;28;19992;-74
2023/06/11 02:17:58;;;;;;;;;;;18.70;99.90;;;;;;5016568;28;19928;-68
2023/06/11 02:20:24;;;;;;;;;;;18.70;99.90;;;;;;5016175;28;19914;-68
2023/06/11 02:22:49;;;;;;;;;;;18.60;99.90;;;;;;5017815;28;20224;-68
2023/06/11 02:25:15;;;;;;;;;;;18.60;99.90;;;;;;5013899;28;19955;-68
2023/06/11 02:27:40;;;;;;;;;;;18.60;99.90;;;;;;5027614;28;19925;-67
2023/06/11 02:30:06;;;;;;;;;;;18.60;99.90;;;;;;5015751;28;19909;-67
2023/06/11 02:32:32;;;;;;;;;;;18.60;99.90;;;;;;5018751;28;19914;-74
2023/06/11 02:34:57;;;;;;;;;;;18.60;99.90;;;;;;5015053;28;19909;-68
2023/06/11 02:37:23;;;;;;;;;;;18.70;99.90;;;;;;5015015;28;19909;-68
2023/06/11 02:39:48;;;;;;;;;;;18.60;99.90;;;;;;5015248;28;20339;-68
2023/06/11 02:42:14;;;;;;;;;;;18.60;99.90;;;;;;5014376;28;19909;-74
2023/06/11 02:44:39;;;;;;;;;;;18.60;99.90;;;;;;5014578;28;19917;-67
2023/06/11 02:47:05;;;;;;;;;;;18.60;99.90;;;;;;5012858;28;19913;-68
2023/06/11 02:49:30;;;;;;;;;;;18.50;99.90;;;;;;5025453;28;19912;-68
2023/06/11 02:51:56;;;;;;;;;;;18.60;99.90;;;;;;5030017;28;19992;-68
2023/06/11 02:54:22;;;;;;;;;;;18.50;99.90;;;;;;5030254;28;19916;-68
2023/06/11 02:56:47;;;;;;;;;;;18.50;99.90;;;;;;5014480;28;20005;-67
2023/06/11 02:59:13;;;;;;;;;;;18.50;99.90;;;;;;5017781;28;19984;-75
2023/06/11 03:01:39;;;;;;;;;;;18.50;99.90;;;;;;5018741;28;19917;-68
2023/06/11 03:04:05;;;;;;;;;;;18.50;99.90;;;;;;5032689;28;20332;-67
2023/06/11 03:06:31;;;;;;;;;;;18.50;99.90;;;;;;5033558;28;19914;-68
2023/06/11 03:08:57;;;;;;;;;;;18.50;99.90;;;;;;5016575;28;20216;-68
2023/06/11 03:11:23;;;;;;;;;;;18.50;99.90;;;;;;5018056;28;19955;-68
2023/06/11 03:13:48;;;;;;;;;;;18.40;99.90;;;;;;5017397;28;20304;-68
2023/06/11 03:16:14;;;;;;;;;;;18.40;99.90;;;;;;5017873;28;19906;-74
2023/06/11 03:18:39;;;;;;;;;;;18.40;99.90;;;;;;5016860;28;19909;-67
2023/06/11 03:21:05;;;;;;;;;;;18.40;99.90;;;;;;5022898;28;20325;-67
2023/06/11 03:23:30;;;;;;;;;;;18.40;99.90;;;;;;5031070;28;19909;-67
2023/06/11 03:25:56;;;;;;;;;;;18.40;99.90;;;;;;5031848;28;19909;-74
2023/06/11 03:28:21;;;;;;;;;;;18.40;99.90;;;;;;5028483;28;20292;-67
2023/06/11 03:30:47;;;;;;;;;;;18.30;99.90;;;;;;5027512;28;19963;-67
2023/06/11 03:33:13;;;;;;;;;;;18.40;99.90;;;;;;5025331;28;20194;-74
2023/06/11 03:35:38;;;;;;;;;;;18.30;99.90;;;;;;5031141;28;20353;-67
2023/06/11 03:38:04;;;;;;;;;;;18.30;99.90;;;;;;5029483;28;19919;-68
2023/06/11 03:40:29;;;;;;;;;;;18.30;99.90;;;;;;5029076;28;19913;-67
2023/06/11 03:42:55;;;;;;;;;;;18.30;99.90;;;;;;5029105;28;19999;-67
2023/06/11 03:45:20;;;;;;;;;;;18.40;99.90;;;;;;5028197;28;19917;-67
2023/06/11 03:47:46;;;;;;;;;;;18.40;99.90;;;;;;5026172;28;20585;-67
2023/06/11 03:50:12;;;;;;;;;;;18.40;99.90;;;;;;5030859;28;20254;-67
2023/06/11 03:52:37;;;;;;;;;;;18.40;99.90;;;;;;5032346;28;19920;-69
2023/06/11 03:55:03;;;;;;;;;;;18.40;99.90;;;;;;5031920;28;19913;-67
2023/06/11 03:57:29;;;;;;;;;;;18.40;99.90;;;;;;5030935;28;19973;-68
2023/06/11 03:59:55;;;;;;;;;;;18.50;99.90;;;;;;5024471;28;20223;-67
2023/06/11 04:02:21;;;;;;;;;;;18.50;99.90;;;;;;5018869;28;19913;-68
2023/06/11 04:04:47;;;;;;;;;;;18.50;99.90;;;;;;5025765;28;20275;-68
2023/06/11 04:07:12;;;;;;;;;;;18.60;99.90;;;;;;5021336;28;19916;-67
2023/06/11 04:09:38;;;;;;;;;;;18.60;99.90;;;;;;5020708;28;19928;-68
2023/06/11 04:12:03;;;;;;;;;;;18.70;99.90;;;;;;5019012;28;19913;-68
2023/06/11 04:14:29;;;;;;;;;;;18.70;99.90;;;;;;5023258;28;19959;-66
2023/06/11 04:16:54;;;;;;;;;;;18.70;99.90;;;;;;5030473;28;19909;-68
2023/06/11 04:19:20;;;;;;;;;;;18.80;99.90;;;;;;5031978;28;19910;-67
2023/06/11 04:21:46;;;;;;;;;;;18.90;99.90;;;;;;5033176;28;19912;-67
2023/06/11 04:24:11;;;;;;;;;;;18.90;99.90;;;;;;5027155;28;20035;-67
2023/06/11 04:26:37;;;;;;;;;;;19.00;99.90;;;;;;5016731;28;20012;-68
2023/06/11 04:29:03;;;;;;;;;;;19.10;99.90;;;;;;5029478;28;20030;-67
2023/06/11 04:31:29;;;;;;;;;;;19.00;99.90;;;;;;5021024;28;19916;-67
2023/06/11 04:34:02;;;;;;;;;;;19.10;99.90;;;;;;5027386;28;20722;-74
2023/06/11 04:36:28;;;;;;;;;;;19.10;99.90;;;;;;5019293;28;19909;-68
2023/06/11 04:38:54;;;;;;;;;;;19.10;99.90;;;;;;5016069;28;20327;-66
2023/06/11 04:41:23;;;;;;;;;;;19.20;99.90;;;;;;5016835;28;19913;-68
2023/06/11 04:43:48;;;;;;;;;;;19.20;99.90;;;;;;5016021;28;19912;-68
2023/06/11 04:46:14;;;;;;;;;;;19.20;99.90;;;;;;5012430;28;20208;-67
2023/06/11 04:48:40;;;;;;;;;;;19.30;99.90;;;;;;5015437;28;19905;-67
2023/06/11 04:51:06;;;;;;;;;;;19.30;99.90;;;;;;5016501;28;19916;-67
2023/06/11 04:53:31;;;;;;;;;;;19.30;99.90;;;;;;5016007;28;19984;-67
2023/06/11 04:55:58;;;;;;;;;;;19.40;99.90;;;;;;5015453;28;19967;-67
2023/06/11 04:58:27;;;;;;;;;;;19.40;99.90;;;;;;5014823;28;19968;-67
2023/06/11 05:00:56;;;;;;;;;;;19.50;99.90;;;;;;5015702;28;19920;-67
2023/06/11 05:03:21;;;;;;;;;;;19.50;99.90;;;;;;5026401;28;20000;-68
2023/06/11 05:05:51;;;;;;;;;;;19.70;99.90;;;;;;5028891;28;20132;-68
2023/06/11 05:08:17;;;;;;;;;;;19.70;99.90;;;;;;5026201;28;19913;-67
2023/06/11 05:10:43;;;;;;;;;;;19.80;99.90;;;;;;5017625;28;19963;-67
2023/06/11 05:13:09;;;;;;;;;;;19.80;99.90;;;;;;5031310;28;19913;-67
2023/06/11 05:15:35;;;;;;;;;;;19.90;99.90;;;;;;5031788;28;19909;-68
2023/06/11 05:18:00;;;;;;;;;;;19.90;99.90;;;;;;5027795;28;19936;-67
2023/06/11 05:20:26;;;;;;;;;;;20.00;99.90;;;;;;5026743;28;19905;-68
2023/06/11 05:22:58;;;;;;;;;;;20.00;99.90;;;;;;5031676;28;19911;-67
2023/06/11 05:25:27;;;;;;;;;;;20.00;99.90;;;;;;5023733;28;19913;-67
2023/06/11 05:27:53;;;;;;;;;;;20.10;99.90;;;;;;5020432;28;20016;-68
2023/06/11 05:30:24;;;;;;;;;;;20.10;99.90;;;;;;5032942;28;19916;-66
2023/06/11 05:32:50;;;;;;;;;;;20.10;99.90;;;;;;5031479;28;20289;-67
2023/06/11 05:35:15;;;;;;;;;;;20.20;99.90;;;;;;5030028;28;19913;-67
2023/06/11 05:37:41;;;;;;;;;;;20.30;99.90;;;;;;5018576;28;19909;-68
2023/06/11 05:40:07;;;;;;;;;;;20.30;99.90;;;;;;5019728;28;20102;-67
2023/06/11 05:42:33;;;;;;;;;;;20.40;99.90;;;;;;5015116;28;19909;-73
2023/06/11 05:44:58;;;;;;;;;;;20.40;99.90;;;;;;5013245;28;20198;-65
2023/06/11 05:47:24;;;;;;;;;;;20.50;99.90;;;;;;5014550;28;20011;-66
2023/06/11 05:49:49;;;;;;;;;;;20.60;99.90;;;;;;5015551;28;19910;-67
2023/06/11 05:52:15;;;;;;;;;;;20.60;99.90;;;;;;5015304;28;19905;-67
2023/06/11 05:54:40;;;;;;;;;;;20.70;99.90;;;;;;5015787;28;19937;-65
2023/06/11 05:57:16;;;;;;;;;;;20.70;99.90;;;;;;5018230;28;19964;-67
2023/06/11 05:59:42;;;;;;;;;;;20.80;99.90;;;;;;5027677;28;19909;-67
2023/06/11 06:02:07;;;;;;;;;;;20.90;99.90;;;;;;5027596;28;19920;-68
2023/06/11 06:04:33;;;;;;;;;;;21.00;99.90;;;;;;5032375;28;19909;-67
2023/06/11 06:06:58;;;;;;;;;;;21.00;99.90;;;;;;5027686;28;19960;-66
2023/06/11 06:09:24;;;;;;;;;;;21.10;99.90;;;;;;5027107;28;19909;-67
2023/06/11 06:11:49;;;;;;;;;;;21.10;99.90;;;;;;5030759;28;20216;-77
2023/06/11 06:14:15;;;;;;;;;;;21.20;99.90;;;;;;5025903;28;19967;-73
2023/06/11 06:16:41;;;;;;;;;;;21.30;99.90;;;;;;5028568;28;19992;-73
2023/06/11 06:19:06;;;;;;;;;;;21.30;99.90;;;;;;5036604;28;19936;-68
2023/06/11 06:21:32;;;;;;;;;;;21.40;99.90;;;;;;5027457;28;19905;-73
2023/06/11 06:23:57;;;;;;;;;;;21.40;99.90;;;;;;5030455;28;19913;-68
2023/06/11 06:26:23;;;;;;;;;;;21.40;99.90;;;;;;5018953;28;19910;-68
2023/06/11 06:28:49;;;;;;;;;;;21.40;99.90;;;;;;5025412;28;20282;-67
2023/06/11 06:31:17;;;;;;;;;;;21.40;99.90;;;;;;5025777;28;19918;-73
2023/06/11 06:33:42;;;;;;;;;;;21.50;99.90;;;;;;5027190;28;19950;-68
2023/06/11 06:36:08;;;;;;;;;;;21.50;99.90;;;;;;5031751;28;20346;-68
2023/06/11 06:38:35;;;;;;;;;;;21.60;99.90;;;;;;5026347;28;19913;-69
2023/06/11 06:41:01;;;;;;;;;;;21.70;99.90;;;;;;5034728;28;19905;-67
2023/06/11 06:43:26;;;;;;;;;;;21.70;99.90;;;;;;5032080;28;19988;-74
2023/06/11 06:45:52;;;;;;;;;;;21.90;99.90;;;;;;5029479;28;19905;-67
2023/06/11 06:48:17;;;;;;;;;;;21.90;99.90;;;;;;5030676;28;19922;-67
2023/06/11 06:50:43;;;;;;;;;;;22.00;99.90;;;;;;5027310;28;19920;-66
2023/06/11 06:53:08;;;;;;;;;;;22.10;99.90;;;;;;5032501;28;19959;-68
2023/06/11 06:55:34;;;;;;;;;;;22.20;99.90;;;;;;5033706;28;19997;-67
2023/06/11 06:58:00;;;;;;;;;;;22.30;99.90;;;;;;5034017;28;19944;-66
2023/06/11 07:00:25;;;;;;;;;;;22.40;99.90;;;;;;5032615;28;19909;-66
2023/06/11 07:02:51;;;;;;;;;;;22.50;99.90;;;;;;5027628;28;20227;-66
2023/06/11 07:05:17;;;;;;;;;;;22.50;99.90;;;;;;5025772;28;20476;-67
2023/06/11 07:07:42;;;;;;;;;;;22.60;99.90;;;;;;5024367;28;19963;-67
2023/06/11 07:10:08;;;;;;;;;;;22.70;99.90;;;;;;5019334;28;19937;-69
2023/06/11 07:12:34;;;;;;;;;;;22.80;99.90;;;;;;5031223;28;19913;-67
2023/06/11 07:14:59;;;;;;;;;;;22.80;99.90;;;;;;5027085;28;19971;-67
2023/06/11 07:17:25;;;;;;;;;;;22.90;99.90;;;;;;5031667;28;19912;-67
2023/06/11 07:19:51;;;;;;;;;;;23.00;99.90;;;;;;5034220;28;19916;-67
2023/06/11 07:22:17;;;;;;;;;;;23.10;99.90;;;;;;5023732;28;19909;-68
2023/06/11 07:24:47;;;;;;;;;;;23.20;99.90;;;;;;5030858;28;19909;-67
2023/06/11 07:27:13;;;;;;;;;;;23.30;99.90;;;;;;5028789;28;19966;-66
2023/06/11 07:29:39;;;;;;;;;;;23.40;99.90;;;;;;5031575;28;20226;-67
2023/06/11 07:32:06;;;;;;;;;;;23.40;99.90;;;;;;5034978;28;19909;-71
2023/06/11 07:34:31;;;;;;;;;;;23.50;99.90;;;;;;5031255;28;19906;-68
2023/06/11 07:36:57;;;;;;;;;;;23.60;99.90;;;;;;5018600;28;19917;-67
2023/06/11 07:39:22;;;;;;;;;;;23.70;99.90;;;;;;5017145;28;19909;-76
2023/06/11 07:41:48;;;;;;;;;;;23.80;99.90;;;;;;5018280;28;20016;-67
2023/06/11 07:44:13;;;;;;;;;;;23.90;99.90;;;;;;5018825;28;19944;-74
2023/06/11 07:46:39;;;;;;;;;;;24.00;99.90;;;;;;5019585;28;19920;-69
2023/06/11 07:49:05;;;;;;;;;;;24.20;99.90;;;;;;5019017;28;19906;-67
2023/06/11 07:51:31;;;;;;;;;;;24.30;99.90;;;;;;5019609;28;19909;-67
2023/06/11 07:53:58;;;;;;;;;;;24.50;99.90;;;;;;5019028;28;19990;-67
2023/06/11 07:56:25;;;;;;;;;;;24.60;99.90;;;;;;5019417;28;19921;-68
2023/06/11 07:58:50;;;;;;;;;;;24.70;99.90;;;;;;5020908;28;20001;-68
2023/06/11 08:01:16;;;;;;;;;;;24.90;99.90;;;;;;5022115;28;20004;-74
2023/06/11 08:03:42;;;;;;;;;;;25.10;99.90;;;;;;5019185;28;20289;-68
2023/06/11 08:06:08;;;;;;;;;;;25.20;99.90;;;;;;5020592;28;20228;-68
2023/06/11 08:08:34;;;;;;;;;;;25.40;99.90;;;;;;5019157;28;19917;-69
2023/06/11 08:11:00;;;;;;;;;;;25.50;99.90;;;;;;5018820;28;19913;-69
2023/06/11 08:13:25;;;;;;;;;;;25.70;99.90;;;;;;5019225;28;19912;-69
2023/06/11 08:15:51;;;;;;;;;;;25.80;99.90;;;;;;5020174;28;19909;-69
2023/06/11 08:18:16;;;;;;;;;;;25.90;99.90;;;;;;5016906;28;19905;-68
2023/06/11 08:20:43;;;;;;;;;;;26.00;99.90;;;;;;5019146;28;20212;-68
2023/06/11 08:23:09;;;;;;;;;;;26.20;99.90;;;;;;5015916;28;19916;-69
2023/06/11 08:25:36;;;;;;;;;;;26.40;99.90;;;;;;5011139;28;20246;-69
2023/06/11 08:28:01;;;;;;;;;;;26.50;99.90;;;;;;5019701;28;20016;-69
2023/06/11 08:30:27;;;;;;;;;;;26.60;99.90;;;;;;5032464;28;19989;-69
2023/06/11 08:32:53;;;;;;;;;;;26.80;99.90;;;;;;5020202;28;19906;-69
2023/06/11 08:35:20;;;;;;;;;;;27.10;99.90;;;;;;5018664;28;20251;-70
2023/06/11 08:37:46;;;;;;;;;;;27.10;99.90;;;;;;5016773;28;19905;-69
2023/06/11 08:40:12;;;;;;;;;;;27.30;99.90;;;;;;5016107;28;19917;-70
2023/06/11 08:42:37;;;;;;;;;;;27.30;99.90;;;;;;5016697;28;19976;-68
2023/06/11 08:45:03;;;;;;;;;;;27.00;99.90;;;;;;5016162;28;20399;-74
2023/06/11 08:47:30;;;;;;;;;;;27.00;99.90;;;;;;5031752;28;19914;-69
2023/06/11 08:49:58;;;;;;;;;;;26.90;99.90;;;;;;5017028;28;19905;-69
2023/06/11 08:52:25;;;;;;;;;;;26.80;99.90;;;;;;5015886;28;20208;-69
2023/06/11 08:54:51;;;;;;;;;;;26.70;99.90;;;;;;5016662;28;19910;-69
2023/06/11 08:57:17;;;;;;;;;;;26.70;99.90;;;;;;5015697;28;19917;-69
2023/06/11 08:59:42;;;;;;;;;;;26.70;99.90;;;;;;5016477;28;19905;-69
2023/06/11 09:02:08;;;;;;;;;;;26.70;99.90;;;;;;5015859;28;19909;-70
2023/06/11 09:04:33;;;;;;;;;;;26.70;99.90;;;;;;5016236;28;19918;-68
2023/06/11 09:07:00;;;;;;;;;;;26.70;99.90;;;;;;5022737;28;20372;-68
2023/06/11 09:09:26;;;;;;;;;;;26.60;99.90;;;;;;5020881;28;19905;-69
2023/06/11 09:11:52;;;;;;;;;;;26.50;99.90;;;;;;5024619;28;19905;-68
2023/06/11 09:14:17;;;;;;;;;;;26.60;99.90;;;;;;5025793;28;19917;-73
2023/06/11 09:16:44;;;;;;;;;;;26.60;99.90;;;;;;5019303;28;19920;-69
2023/06/11 09:19:20;;;;;;;;;;;26.70;99.90;;;;;;5023759;28;19910;-73
2023/06/11 09:21:55;;;;;;;;;;;26.70;99.90;;;;;;5027422;28;19912;-68
2023/06/11 09:24:21;;;;;;;;;;;26.70;99.90;;;;;;5024153;28;19956;-69
2023/06/11 09:26:50;;;;;;;;;;;26.70;99.90;;;;;;5021181;28;20023;-74
2023/06/11 09:29:16;;;;;;;;;;;26.70;99.90;;;;;;5022842;28;19918;-74
2023/06/11 09:31:41;;;;;;;;;;;26.60;99.90;;;;;;5022791;28;20288;-68
2023/06/11 09:34:09;;;;;;;;;;;26.70;99.90;;;;;;5022490;28;19916;-73
2023/06/11 09:36:35;;;;;;;;;;;26.80;99.90;;;;;;5025980;28;19909;-68
2023/06/11 09:39:02;;;;;;;;;;;26.80;99.90;;;;;;5015408;28;20062;-69
2023/06/11 09:41:28;;;;;;;;;;;26.90;99.90;;;;;;5015830;28;19960;-68
2023/06/11 09:43:54;;;;;;;;;;;27.00;99.90;;;;;;5015124;28;20007;-69
2023/06/11 09:46:20;;;;;;;;;;;27.20;99.90;;;;;;5015605;28;20300;-69
2023/06/11 09:48:47;;;;;;;;;;;27.30;99.90;;;;;;5030500;28;20376;-69
2023/06/11 09:51:12;;;;;;;;;;;27.30;99.90;;;;;;5014251;28;19917;-73
2023/06/11 09:53:38;;;;;;;;;;;27.40;99.90;;;;;;5013914;28;19932;-69
2023/06/11 09:56:05;;;;;;;;;;;27.70;99.90;;;;;;5015437;28;20027;-69
2023/06/11 09:58:32;;;;;;;;;;;27.80;99.90;;;;;;5015415;28;20259;-70
2023/06/11 10:01:00;;;;;;;;;;;27.80;99.90;;;;;;5014887;28;19909;-69
2023/06/11 10:03:26;;;;;;;;;;;27.80;99.90;;;;;;5015492;28;20201;-68
2023/06/11 10:05:52;;;;;;;;;;;27.60;99.90;;;;;;5014539;28;19964;-69
2023/06/11 10:08:26;;;;;;;;;;;27.60;99.90;;;;;;5015536;28;19917;-69
2023/06/11 10:10:55;;;;;;;;;;;27.70;99.90;;;;;;5015116;28;19909;-70
2023/06/11 10:13:27;;;;;;;;;;;27.60;99.90;;;;;;5015300;28;19913;-69
2023/06/11 10:15:53;;;;;;;;;;;27.60;99.90;;;;;;5014764;28;20211;-68
2023/06/11 10:18:23;;;;;;;;;;;27.60;99.90;;;;;;5014970;28;20005;-70
2023/06/11 10:20:53;;;;;;;;;;;27.70;99.90;;;;;;5014606;28;19910;-68
2023/06/11 10:23:20;;;;;;;;;;;27.90;99.90;;;;;;5015272;28;19997;-69
2023/06/11 10:25:54;;;;;;;;;;;28.20;99.90;;;;;;5015586;28;19999;-69
2023/06/11 10:28:22;;;;;;;;;;;28.30;99.90;;;;;;5015507;28;19913;-69
2023/06/11 10:30:54;;;;;;;;;;;28.30;99.90;;;;;;5012225;28;20280;-69
2023/06/11 10:33:20;;;;;;;;;;;28.40;99.90;;;;;;5025936;28;19913;-69
2023/06/11 10:35:46;;;;;;;;;;;28.50;99.90;;;;;;5017528;28;19912;-69
2023/06/11 10:38:13;;;;;;;;;;;28.60;99.90;;;;;;5014668;28;19906;-69
2023/06/11 10:40:39;;;;;;;;;;;28.40;99.90;;;;;;5029429;28;20300;-69
2023/06/11 10:43:21;;;;;;;;;;;28.50;99.90;;;;;;5015096;28;19906;-69
2023/06/11 10:45:59;;;;;;;;;;;28.40;99.90;;;;;;5015256;28;19937;-69
2023/06/11 10:48:28;;;;;;;;;;;28.30;99.90;;;;;;5015329;28;19913;-67
2023/06/11 10:51:03;;;;;;;;;;;28.70;99.90;;;;;;5015311;28;20000;-76
2023/06/11 10:53:39;;;;;;;;;;;29.00;99.90;;;;;;5014954;28;19913;-68
2023/06/11 10:56:05;;;;;;;;;;;29.10;99.90;;;;;;5014428;28;20304;-69
2023/06/11 10:58:32;;;;;;;;;;;29.20;99.70;;;;;;5015228;28;19912;-69
2023/06/11 11:00:58;;;;;;;;;;;29.20;99.90;;;;;;5014148;28;19920;-68
2023/06/11 11:03:25;;;;;;;;;;;29.30;99.90;;;;;;5014938;28;19933;-68
2023/06/11 11:05:52;;;;;;;;;;;29.60;98.60;;;;;;5014215;28;19912;-75
2023/06/11 11:08:19;;;;;;;;;;;29.90;98.90;;;;;;5014497;28;19913;-73
2023/06/11 11:10:45;;;;;;;;;;;30.00;98.60;;;;;;5014209;28;20323;-69
2023/06/11 11:13:10;;;;;;;;;;;30.20;98.10;;;;;;5030091;28;19960;-68
2023/06/11 11:15:37;;;;;;;;;;;30.30;99.20;;;;;;5014691;28;20334;-68
2023/06/11 11:18:02;;;;;;;;;;;30.50;99.70;;;;;;5014697;28;19905;-69
2023/06/11 11:20:34;;;;;;;;;;;30.80;99.90;;;;;;5017985;28;19920;-68
2023/06/11 11:23:00;;;;;;;;;;;30.90;98.70;;;;;;5017837;28;20231;-69
2023/06/11 11:25:29;;;;;;;;;;;31.00;97.90;;;;;;5018339;28;19906;-68
2023/06/11 11:27:55;;;;;;;;;;;31.00;97.90;;;;;;5033134;28;19959;-68
2023/06/11 11:30:21;;;;;;;;;;;30.60;98.20;;;;;;5018177;28;19905;-68
2023/06/11 11:32:47;;;;;;;;;;;30.30;98.10;;;;;;5017241;28;20304;-75
2023/06/11 11:35:16;;;;;;;;;;;30.20;97.30;;;;;;5017777;28;19912;-68
2023/06/11 11:37:45;;;;;;;;;;;30.20;97.60;;;;;;5018039;28;20289;-68
2023/06/11 11:40:11;;;;;;;;;;;30.20;98.20;;;;;;5017755;28;19915;-69
2023/06/11 11:42:45;;;;;;;;;;;30.00;98.10;;;;;;5017496;28;20431;-69
2023/06/11 11:45:12;;;;;;;;;;;29.70;99.90;;;;;;5031774;28;20007;-68
2023/06/11 11:47:37;;;;;;;;;;;29.60;99.50;;;;;;5017857;28;19909;-76
2023/06/11 11:50:03;;;;;;;;;;;29.50;97.10;;;;;;5017868;28;19911;-69
2023/06/11 11:52:28;;;;;;;;;;;29.40;98.10;;;;;;5016768;28;19952;-68
2023/06/11 11:54:55;;;;;;;;;;;29.50;97.60;;;;;;5017947;28;19909;-68
2023/06/11 11:57:21;;;;;;;;;;;29.40;97.10;;;;;;5017003;28;19917;-68
2023/06/11 11:59:51;;;;;;;;;;;29.30;98.00;;;;;;5017896;28;20224;-67
2023/06/11 12:02:16;;;;;;;;;;;29.40;98.50;;;;;;5032063;28;19959;-69
2023/06/11 12:04:45;;;;;;;;;;;29.30;98.00;;;;;;5017265;28;19909;-68
2023/06/11 12:07:12;;;;;;;;;;;29.30;97.20;;;;;;5017006;28;20308;-68
2023/06/11 12:09:38;;;;;;;;;;;29.10;97.50;;;;;;5017404;28;20190;-68
2023/06/11 12:12:04;;;;;;;;;;;28.90;99.40;;;;;;5016400;28;20358;-67
2023/06/11 12:14:29;;;;;;;;;;;29.10;98.60;;;;;;5014736;28;19913;-68
2023/06/11 12:16:55;;;;;;;;;;;29.50;96.80;;;;;;5016524;28;19905;-67
2023/06/11 12:19:21;;;;;;;;;;;29.60;96.20;;;;;;5016349;28;19912;-67
2023/06/11 12:21:47;;;;;;;;;;;29.50;96.00;;;;;;5016560;28;19913;-74
2023/06/11 12:24:15;;;;;;;;;;;29.30;96.40;;;;;;5015489;28;19913;-67
2023/06/11 12:26:50;;;;;;;;;;;29.30;96.60;;;;;;5022026;28;19940;-68
2023/06/11 12:29:16;;;;;;;;;;;29.50;96.20;;;;;;5016351;28;19931;-68
2023/06/11 12:31:41;;;;;;;;;;;29.60;96.10;;;;;;5016974;28;20004;-67
2023/06/11 12:34:09;;;;;;;;;;;29.40;95.90;;;;;;5016451;28;19952;-80
2023/06/11 12:36:36;;;;;;;;;;;29.30;95.80;;;;;;5015996;28;19960;-66
2023/06/11 12:39:03;;;;;;;;;;;29.20;94.80;;;;;;5016941;28;19905;-69
2023/06/11 12:41:29;;;;;;;;;;;29.10;95.20;;;;;;5016527;28;19909;-67
2023/06/11 12:43:54;;;;;;;;;;;29.20;96.10;;;;;;5016271;28;20304;-68
2023/06/11 12:46:20;;;;;;;;;;;29.60;95.70;;;;;;5016972;28;19906;-68
2023/06/11 12:48:45;;;;;;;;;;;29.90;94.90;;;;;;5015721;28;19929;-68
2023/06/11 12:51:11;;;;;;;;;;;30.20;94.60;;;;;;5016802;28;20004;-69
2023/06/11 12:53:37;;;;;;;;;;;30.40;94.50;;;;;;5015933;28;19928;-69
2023/06/11 12:56:03;;;;;;;;;;;30.60;94.80;;;;;;5016166;28;19917;-68
2023/06/11 12:58:28;;;;;;;;;;;30.90;94.50;;;;;;5016306;28;19920;-67
2023/06/11 13:00:54;;;;;;;;;;;31.00;94.30;;;;;;5015701;28;19905;-68
2023/06/11 13:03:19;;;;;;;;;;;31.00;93.50;;;;;;5016123;28;19928;-69
2023/06/11 13:05:45;;;;;;;;;;;31.10;92.00;;;;;;5014792;28;19913;-68
2023/06/11 13:08:11;;;;;;;;;;;31.00;91.10;;;;;;5024440;28;19909;-68
2023/06/11 13:10:38;;;;;;;;;;;30.80;91.90;;;;;;5015731;28;20296;-69
2023/06/11 13:13:04;;;;;;;;;;;30.50;92.20;;;;;;5016341;28;19909;-68
2023/06/11 13:15:30;;;;;;;;;;;30.50;93.70;;;;;;5016527;28;20208;-68
2023/06/11 13:17:57;;;;;;;;;;;30.60;92.80;;;;;;5015799;28;20300;-68
2023/06/11 13:20:22;;;;;;;;;;;30.70;93.90;;;;;;5015915;28;20318;-67
2023/06/11 13:22:48;;;;;;;;;;;30.80;93.50;;;;;;5015527;28;19988;-67
2023/06/11 13:25:14;;;;;;;;;;;30.60;93.40;;;;;;5031224;28;19916;-73
2023/06/11 13:27:40;;;;;;;;;;;30.40;93.10;;;;;;5015208;28;19968;-67
2023/06/11 13:30:09;;;;;;;;;;;30.20;93.30;;;;;;5015836;28;19913;-68
2023/06/11 13:32:36;;;;;;;;;;;30.30;93.30;;;;;;5014934;28;20301;-68
2023/06/11 13:35:02;;;;;;;;;;;30.50;94.00;;;;;;5014836;28;19913;-68
2023/06/11 13:37:27;;;;;;;;;;;30.70;93.00;;;;;;5015995;28;19912;-77
2023/06/11 13:39:53;;;;;;;;;;;30.70;93.40;;;;;;5015873;28;20447;-67
2023/06/11 13:42:18;;;;;;;;;;;30.80;92.80;;;;;;5014708;28;20335;-67
2023/06/11 13:44:45;;;;;;;;;;;31.00;93.10;;;;;;5015707;28;19910;-68
2023/06/11 13:47:10;;;;;;;;;;;31.10;94.40;;;;;;5014997;28;19920;-68
2023/06/11 13:49:36;;;;;;;;;;;31.20;93.80;;;;;;5014593;28;19917;-68
2023/06/11 13:52:02;;;;;;;;;;;31.50;93.40;;;;;;5014916;28;19906;-67
2023/06/11 13:54:28;;;;;;;;;;;31.40;92.10;;;;;;5015522;28;19964;-67
2023/06/11 13:56:54;;;;;;;;;;;31.30;93.10;;;;;;5015473;28;19921;-69
2023/06/11 13:59:21;;;;;;;;;;;31.20;91.70;;;;;;5015106;28;19912;-68
2023/06/11 14:01:46;;;;;;;;;;;31.20;92.30;;;;;;5015293;28;19984;-68
2023/06/11 14:04:12;;;;;;;;;;;31.20;91.60;;;;;;5028500;28;19996;-68
2023/06/11 14:06:38;;;;;;;;;;;31.20;92.90;;;;;;5015336;28;19956;-68
2023/06/11 14:09:04;;;;;;;;;;;31.30;92.20;;;;;;5014881;28;20000;-68
2023/06/11 14:11:29;;;;;;;;;;;31.30;92.30;;;;;;5015226;28;19909;-68